Time;durP1;ratioP1;P1;durP2;ratioP2;P2;SDS_P1;SDS_P2;PMS_P1;PMS_P2;Temp;Humidity;BMP_temperature;BMP_pressure;BME280_temperature;BME280_humidity;BME280_pressure;Samples;Min_cycle;Max_cycle;Signal;HPM_P1;HPM_P2
2021/06/12 00:00:46;;;;;;;4.60;3.50;;;21.70;81.10;;;;;;5038313;28;20038;-88
2021/06/12 00:03:12;;;;;;;8.48;4.00;;;21.70;81.00;;;;;;5034563;28;20037;-87
2021/06/12 00:05:38;;;;;;;4.78;3.67;;;21.60;81.30;;;;;;5018029;28;20040;-87
2021/06/12 00:08:04;;;;;;;6.57;3.88;;;21.60;81.80;;;;;;5017698;28;20025;-87
2021/06/12 00:10:34;;;;;;;6.65;4.22;;;21.50;81.70;;;;;;5051000;28;20052;-87
2021/06/12 00:13:00;;;;;;;;;;;21.50;81.90;;;;;;5047771;28;20140;-87
2021/06/12 00:15:27;;;;;;;5.45;4.25;;;21.50;82.20;;;;;;5047482;28;20046;-87
2021/06/12 00:17:55;;;;;;;6.60;4.43;;;21.50;82.60;;;;;;5050214;28;20082;-86
2021/06/12 00:20:23;;;;;;;6.53;4.43;;;21.40;82.40;;;;;;5050910;28;20551;-87
2021/06/12 00:22:50;;;;;;;6.90;4.55;;;21.30;82.60;;;;;;5050758;28;20017;-87
2021/06/12 00:25:19;;;;;;;6.38;4.45;;;21.30;82.90;;;;;;5051994;28;20367;-87
2021/06/12 00:27:45;;;;;;;5.18;4.07;;;21.30;82.70;;;;;;5038004;28;20057;-87
2021/06/12 00:30:12;;;;;;;5.93;4.60;;;21.20;82.90;;;;;;5016406;28;20081;-87
2021/06/12 00:32:38;;;;;;;6.38;4.70;;;21.20;83.20;;;;;;5050857;28;20457;-87
2021/06/12 00:35:09;;;;;;;7.78;4.88;;;21.20;83.50;;;;;;5033950;28;20109;-87
2021/06/12 00:37:35;;;;;;;5.72;4.25;;;21.10;83.70;;;;;;5040427;28;20482;-86
2021/06/12 00:40:01;;;;;;;6.60;5.20;;;21.10;83.50;;;;;;5048135;28;20076;-87
2021/06/12 00:42:27;;;;;;;6.72;4.57;;;21.10;83.60;;;;;;5050369;28;20093;-87
2021/06/12 00:44:52;;;;;;;6.40;4.50;;;21.00;83.80;;;;;;5050510;28;20103;-87
2021/06/12 00:47:18;;;;;;;5.82;5.13;;;21.00;83.90;;;;;;5050317;28;20083;-87
2021/06/12 00:49:44;;;;;;;6.47;4.68;;;20.90;84.20;;;;;;5033575;28;20029;-87
2021/06/12 00:52:09;;;;;;;7.30;5.30;;;20.80;84.40;;;;;;5017379;28;20022;-87
2021/06/12 00:54:36;;;;;;;7.55;5.70;;;20.80;85.00;;;;;;5033769;28;20037;-87
2021/06/12 00:57:03;;;;;;;8.23;5.45;;;20.80;85.00;;;;;;5030833;28;20044;-87
2021/06/12 00:59:30;;;;;;;7.80;5.88;;;20.80;85.20;;;;;;5047249;28;20455;-87
2021/06/12 01:01:55;;;;;;;6.97;5.32;;;20.80;85.10;;;;;;5037552;28;20025;-87
2021/06/12 01:04:21;;;;;;;8.57;5.88;;;20.70;85.10;;;;;;5030444;28;20541;-86
2021/06/12 01:06:50;;;;;;;7.00;5.32;;;20.70;85.10;;;;;;5047490;28;20510;-87
2021/06/12 01:09:21;;;;;;;7.53;5.63;;;20.70;85.30;;;;;;5024741;28;20036;-87
2021/06/12 01:11:56;;;;;;;7.22;4.97;;;20.60;85.60;;;;;;5050082;28;20071;-87
2021/06/12 01:14:25;;;;;;;6.55;4.97;;;20.60;85.40;;;;;;5040264;28;20017;-87
2021/06/12 01:16:59;;;;;;;9.45;5.53;;;20.60;85.50;;;;;;5046456;28;20025;-86
2021/06/12 01:20:02;;;;;;;7.32;5.22;;;20.50;85.50;;;;;;5049006;28;20025;-87
2021/06/12 01:22:33;;;;;;;8.20;5.15;;;20.50;85.70;;;;;;5050217;28;20108;-87
2021/06/12 01:25:12;;;;;;;8.80;5.43;;;20.40;86.00;;;;;;5050052;28;20036;-86
2021/06/12 01:30:15;;;;;;;8.52;6.07;;;20.40;86.80;;;;;;5070432;28;20041;-85
2021/06/12 01:32:46;;;;;;;9.88;5.78;;;20.40;87.00;;;;;;5040444;28;20028;-84
2021/06/12 01:35:22;;;;;;;6.93;5.22;;;20.40;86.80;;;;;;5056889;28;20021;-84
2021/06/12 01:37:49;;;;;;;8.77;5.57;;;20.40;87.00;;;;;;5074786;28;20020;-84
2021/06/12 01:40:16;;;;;;;7.40;5.38;;;20.40;86.90;;;;;;5056579;28;20531;-85
2021/06/12 01:42:46;;;;;;;10.00;5.78;;;20.40;86.70;;;;;;5056628;28;20116;-84
2021/06/12 01:45:12;;;;;;;8.95;6.55;;;20.40;86.70;;;;;;5056562;28;20035;-85
2021/06/12 01:47:38;;;;;;;11.90;5.72;;;20.40;86.70;;;;;;5056551;28;20028;-84
2021/06/12 01:50:06;;;;;;;7.80;5.47;;;20.40;87.00;;;;;;5040914;28;20021;-84
2021/06/12 01:52:33;;;;;;;8.43;5.55;;;20.40;87.20;;;;;;5040181;28;20029;-84
2021/06/12 01:55:01;;;;;;;8.52;5.75;;;20.40;87.10;;;;;;5039687;28;20020;-84
2021/06/12 01:57:28;;;;;;;9.02;5.22;;;20.40;87.00;;;;;;5061015;28;20033;-84
2021/06/12 01:59:55;;;;;;;8.68;5.68;;;20.40;86.90;;;;;;5056292;28;20021;-84
2021/06/12 02:02:21;;;;;;;8.77;5.88;;;20.40;86.70;;;;;;5019799;28;20033;-84
2021/06/12 02:04:50;;;;;;;7.72;5.50;;;20.30;86.60;;;;;;5070522;28;20037;-84
2021/06/12 02:07:16;;;;;;;7.75;5.32;;;20.30;86.80;;;;;;5056013;28;20048;-84
2021/06/12 02:09:45;;;;;;;8.07;5.15;;;20.20;86.90;;;;;;5056004;28;20028;-84
2021/06/12 02:12:12;;;;;;;9.05;5.60;;;20.20;87.20;;;;;;5074009;28;20013;-85
2021/06/12 02:14:40;;;;;;;8.85;5.78;;;20.10;87.30;;;;;;5039346;28;20082;-85
2021/06/12 02:17:06;;;;;;;7.80;5.10;;;20.10;87.50;;;;;;5044291;28;20115;-84
2021/06/12 02:19:35;;;;;;;9.73;5.72;;;20.00;87.60;;;;;;5042170;28;20542;-84
2021/06/12 02:22:02;;;;;;;7.57;4.95;;;20.00;87.90;;;;;;5055762;28;20145;-84
2021/06/12 02:24:29;;;;;;;10.15;5.82;;;20.00;87.90;;;;;;5019351;28;20035;-85
2021/06/12 02:26:56;;;;;;;9.27;5.85;;;20.00;87.90;;;;;;5054142;28;20027;-84
2021/06/12 02:29:23;;;;;;;9.02;5.90;;;20.00;87.80;;;;;;5039143;28;20444;-84
2021/06/12 02:32:09;;;;;;;9.02;5.30;;;20.00;87.90;;;;;;5055492;28;20385;-84
2021/06/12 02:34:38;;;;;;;8.07;4.97;;;19.90;88.40;;;;;;5064271;28;20385;-85
2021/06/12 02:37:08;;;;;;;8.73;5.60;;;20.00;88.10;;;;;;5037688;28;20037;-84
2021/06/12 02:39:37;;;;;;;9.02;6.05;;;19.90;88.40;;;;;;5055423;28;20025;-84
2021/06/12 02:42:04;;;;;;;9.45;5.30;;;19.90;88.50;;;;;;5038452;28;20559;-84
2021/06/12 02:44:30;;;;;;;9.25;5.88;;;19.90;88.60;;;;;;5044919;28;20385;-84
2021/06/12 02:47:01;;;;;;;8.15;4.97;;;19.90;88.50;;;;;;5041176;28;20037;-84
2021/06/12 02:49:32;;;;;;;9.00;5.70;;;19.90;88.90;;;;;;5067166;28;20024;-84
2021/06/12 02:52:02;;;;;;;8.60;5.50;;;19.90;88.90;;;;;;5055155;28;20060;-84
2021/06/12 02:54:30;;;;;;;7.53;5.25;;;19.90;88.90;;;;;;5055132;28;20052;-84
2021/06/12 02:56:57;;;;;;;7.22;5.45;;;19.90;89.10;;;;;;5049307;28;20115;-84
2021/06/12 02:59:25;;;;;;;9.15;5.90;;;19.90;89.00;;;;;;5051523;28;20482;-85
2021/06/12 03:01:52;;;;;;;9.38;6.22;;;19.90;89.10;;;;;;5038815;28;20024;-84
2021/06/12 03:04:19;;;;;;;8.85;5.35;;;19.80;89.20;;;;;;5068428;28;20021;-84
2021/06/12 03:06:50;;;;;;;8.40;5.55;;;19.80;89.10;;;;;;5042436;28;20063;-84
2021/06/12 03:09:21;;;;;;;9.77;5.72;;;19.80;89.60;;;;;;5072808;28;20025;-84
2021/06/12 03:11:49;;;;;;;10.43;5.97;;;19.70;89.50;;;;;;5054880;28;20158;-84
2021/06/12 03:14:16;;;;;;;9.95;5.78;;;19.80;89.70;;;;;;5062013;28;20028;-84
2021/06/12 03:16:44;;;;;;;8.95;6.05;;;19.70;89.60;;;;;;5038015;28;20025;-84
2021/06/12 03:19:12;;;;;;;10.40;6.28;;;19.70;89.80;;;;;;5054757;28;20032;-84
2021/06/12 03:21:38;;;;;;;9.18;5.70;;;19.70;89.80;;;;;;5054465;28;20028;-84
2021/06/12 03:24:05;;;;;;;11.50;5.72;;;19.70;90.00;;;;;;5055010;28;20028;-84
2021/06/12 03:26:33;;;;;;;9.48;6.28;;;19.70;89.90;;;;;;5042561;28;20512;-83
2021/06/12 03:28:59;;;;;;;10.65;6.00;;;19.60;90.00;;;;;;5066987;28;20044;-84
2021/06/12 03:31:27;;;;;;;9.60;5.57;;;19.50;90.20;;;;;;5054629;28;20021;-84
2021/06/12 03:33:53;;;;;;;8.63;5.28;;;19.50;90.20;;;;;;5021772;28;20012;-84
2021/06/12 03:36:20;;;;;;;9.23;5.75;;;19.40;90.20;;;;;;5037824;28;20024;-84
2021/06/12 03:38:45;;;;;;;10.23;5.25;;;19.40;90.40;;;;;;5038028;28;20025;-84
2021/06/12 03:41:11;;;;;;;8.85;4.85;;;19.30;90.30;;;;;;5064774;28;20428;-84
2021/06/12 03:43:37;;;;;;;9.43;5.45;;;19.30;90.40;;;;;;5021320;28;20025;-84
2021/06/12 03:46:05;;;;;;;8.07;4.80;;;19.30;90.50;;;;;;5050377;28;20027;-84
2021/06/12 03:48:31;;;;;;;8.90;5.80;;;19.30;90.50;;;;;;5054303;28;20109;-84
2021/06/12 03:50:58;;;;;;;9.32;5.40;;;19.30;90.70;;;;;;5037821;28;20047;-84
2021/06/12 03:53:43;;;;;;;8.82;4.50;;;19.30;90.60;;;;;;5037426;28;20032;-84
2021/06/12 03:56:15;;;;;;;8.00;4.68;;;19.20;90.60;;;;;;5054243;28;20367;-84
2021/06/12 03:58:43;;;;;;;8.68;4.28;;;19.20;90.70;;;;;;5054279;28;20048;-84
2021/06/12 04:01:12;;;;;;;8.38;4.30;;;19.20;90.70;;;;;;5070757;28;20478;-84
2021/06/12 04:03:39;;;;;;;9.13;4.97;;;19.30;90.80;;;;;;5054074;28;20063;-84
2021/06/12 04:06:06;;;;;;;7.88;4.57;;;19.30;90.70;;;;;;5031423;28;20013;-84
2021/06/12 04:08:31;;;;;;;11.95;5.38;;;19.30;90.70;;;;;;5044549;28;20100;-84
2021/06/12 04:10:57;;;;;;;9.75;5.38;;;19.30;90.80;;;;;;5053889;28;20103;-84
2021/06/12 04:13:23;;;;;;;8.48;5.20;;;19.30;90.80;;;;;;5034151;28;20029;-84
2021/06/12 04:15:48;;;;;;;8.10;4.97;;;19.30;90.80;;;;;;5030959;28;20470;-84
2021/06/12 04:18:15;;;;;;;8.57;4.95;;;19.30;90.90;;;;;;5053872;28;20032;-84
2021/06/12 04:20:40;;;;;;;9.05;4.25;;;19.30;90.90;;;;;;5034158;28;20159;-84
2021/06/12 04:23:07;;;;;;;12.95;5.15;;;19.30;90.90;;;;;;5068172;28;20107;-84
2021/06/12 04:25:32;;;;;;;8.02;4.82;;;19.30;90.90;;;;;;5053914;28;20021;-84
2021/06/12 04:27:58;;;;;;;8.02;4.80;;;19.30;91.00;;;;;;5049147;28;20036;-85
2021/06/12 04:30:24;;;;;;;9.15;5.40;;;19.30;91.10;;;;;;5053603;28;20124;-84
2021/06/12 04:32:50;;;;;;;5.97;4.22;;;19.30;91.10;;;;;;5033953;28;20111;-84
2021/06/12 04:35:16;;;;;;;11.35;5.38;;;19.30;91.10;;;;;;5039415;28;20128;-85
2021/06/12 04:37:43;;;;;;;7.25;4.55;;;19.30;91.20;;;;;;5045403;28;20025;-84
2021/06/12 04:40:11;;;;;;;8.52;5.10;;;19.30;91.20;;;;;;5067624;28;20024;-84
2021/06/12 04:42:37;;;;;;;6.95;4.57;;;19.20;91.10;;;;;;5053477;28;20021;-84
2021/06/12 04:45:06;;;;;;;7.13;4.75;;;19.30;91.20;;;;;;5071431;28;20494;-84
2021/06/12 04:47:32;;;;;;;8.55;4.70;;;19.30;91.30;;;;;;5036889;28;20124;-84
2021/06/12 04:49:57;;;;;;;9.93;4.68;;;19.30;91.30;;;;;;5017907;28;20060;-83
2021/06/12 04:52:24;;;;;;;7.80;4.97;;;19.40;91.30;;;;;;5053597;28;20071;-84
2021/06/12 04:54:50;;;;;;;10.45;5.00;;;19.40;91.30;;;;;;5037037;28;20033;-84
2021/06/12 04:57:16;;;;;;;9.05;5.03;;;19.50;91.30;;;;;;5038261;28;20033;-84
2021/06/12 04:59:42;;;;;;;7.15;4.65;;;19.50;91.20;;;;;;5046114;28;20409;-84
2021/06/12 05:02:07;;;;;;;9.00;5.32;;;19.50;91.20;;;;;;5020310;28;20039;-84
2021/06/12 05:04:33;;;;;;;9.13;5.72;;;19.50;91.20;;;;;;5020573;28;20115;-84
2021/06/12 05:07:02;;;;;;;10.75;5.25;;;19.60;91.30;;;;;;5056965;28;20064;-85
2021/06/12 05:09:28;;;;;;;8.75;5.53;;;19.60;91.30;;;;;;5028118;28;20131;-84
2021/06/12 05:11:53;;;;;;;8.98;5.88;;;19.60;91.20;;;;;;5047415;28;20119;-84
2021/06/12 05:14:19;;;;;;;8.52;5.90;;;19.60;91.20;;;;;;5021771;28;20025;-84
2021/06/12 05:16:45;;;;;;;12.60;6.65;;;19.60;91.10;;;;;;5040497;28;20024;-84
2021/06/12 05:19:11;;;;;;;8.55;5.85;;;19.70;91.10;;;;;;5040934;28;20042;-84
2021/06/12 05:21:38;;;;;;;9.18;5.97;;;19.70;91.10;;;;;;5040311;28;20386;-84
2021/06/12 05:24:06;;;;;;;8.77;6.28;;;19.70;91.00;;;;;;5048629;28;20490;-84
2021/06/12 05:26:32;;;;;;;10.98;6.10;;;19.60;90.90;;;;;;5073147;28;20378;-85
2021/06/12 05:32:33;;;;;;;10.15;6.50;;;19.70;91.00;;;;;;5053530;28;20505;-84
2021/06/12 05:35:01;;;;;;;8.90;6.63;;;19.60;91.00;;;;;;5040442;28;20032;-84
2021/06/12 05:37:27;;;;;;;12.10;6.93;;;19.60;91.00;;;;;;5027688;28;20489;-84
2021/06/12 05:39:52;;;;;;;9.57;6.72;;;19.70;91.30;;;;;;5040870;28;20028;-86
2021/06/12 05:42:18;;;;;;;10.40;6.35;;;19.70;91.00;;;;;;5021609;28;20025;-86
2021/06/12 05:44:44;;;;;;;9.95;6.65;;;19.60;91.00;;;;;;5050363;28;20029;-87
2021/06/12 05:47:09;;;;;;;13.95;6.97;;;19.70;91.00;;;;;;5017100;28;20123;-86
2021/06/12 05:49:35;;;;;;;9.13;6.35;;;19.70;91.00;;;;;;5043775;28;20016;-86
2021/06/12 05:52:01;;;;;;;13.35;7.65;;;19.70;91.00;;;;;;5061875;28;20529;-87
2021/06/12 05:54:27;;;;;;;10.43;6.32;;;19.70;91.00;;;;;;5049567;28;20150;-86
2021/06/12 05:56:55;;;;;;;8.95;6.22;;;19.70;90.90;;;;;;5041035;28;20385;-87
2021/06/12 05:59:21;;;;;;;9.52;6.47;;;19.70;90.90;;;;;;5058702;28;20363;-86
2021/06/12 06:01:47;;;;;;;9.05;6.35;;;19.70;90.80;;;;;;5058330;28;20021;-86
2021/06/12 06:04:13;;;;;;;9.30;6.07;;;19.70;90.80;;;;;;5057947;28;20476;-86
2021/06/12 06:06:38;;;;;;;10.75;6.65;;;19.70;90.80;;;;;;5058303;28;20033;-86
2021/06/12 06:09:04;;;;;;;10.55;6.03;;;19.70;90.80;;;;;;5041937;28;20523;-86
2021/06/12 06:11:30;;;;;;;8.90;6.15;;;19.70;90.80;;;;;;5043139;28;20037;-86
2021/06/12 06:13:56;;;;;;;10.23;6.95;;;19.80;90.80;;;;;;5041421;28;20051;-86
2021/06/12 06:16:22;;;;;;;8.98;6.00;;;19.70;91.10;;;;;;5047029;28;20031;-86
2021/06/12 06:18:48;;;;;;;12.40;6.07;;;19.80;90.80;;;;;;5055115;28;20024;-87
2021/06/12 06:21:14;;;;;;;9.20;5.53;;;19.80;90.90;;;;;;5060925;28;20538;-87
2021/06/12 06:23:40;;;;;;;11.50;5.47;;;19.90;90.90;;;;;;5065338;28;20063;-86
2021/06/12 06:26:06;;;;;;;9.95;6.00;;;19.90;90.90;;;;;;5058880;28;20378;-87
2021/06/12 06:28:32;;;;;;;8.32;5.28;;;20.00;90.90;;;;;;5053284;28;20111;-86
2021/06/12 06:30:57;;;;;;;9.20;5.55;;;20.00;90.70;;;;;;5024837;28;20047;-86
2021/06/12 06:33:24;;;;;;;8.00;5.40;;;20.00;90.60;;;;;;5030613;28;20484;-85
2021/06/12 06:35:51;;;;;;;8.13;4.97;;;20.00;90.60;;;;;;5066139;28;20059;-85
2021/06/12 06:38:16;;;;;;;9.10;5.20;;;20.10;90.60;;;;;;5074054;28;20023;-86
2021/06/12 06:40:42;;;;;;;9.98;5.75;;;20.10;90.50;;;;;;5046713;28;20028;-86
2021/06/12 06:43:11;;;;;;;8.75;4.60;;;20.10;90.50;;;;;;5022178;28;20017;-86
2021/06/12 06:45:37;;;;;;;8.45;4.97;;;20.20;90.70;;;;;;5038250;28;20395;-87
2021/06/12 06:48:03;;;;;;;7.60;4.45;;;20.20;90.40;;;;;;5057201;28;20033;-86
2021/06/12 06:50:29;;;;;;;7.55;3.92;;;20.30;90.40;;;;;;5037306;28;20436;-86
2021/06/12 06:52:55;;;;;;;8.02;4.32;;;20.30;90.40;;;;;;5024053;28;20036;-86
2021/06/12 06:55:20;;;;;;;8.00;4.78;;;20.40;90.30;;;;;;5040838;28;20355;-86
2021/06/12 06:57:46;;;;;;;6.70;4.43;;;20.40;90.10;;;;;;5023831;28;20492;-86
2021/06/12 07:00:12;;;;;;;6.78;4.47;;;20.40;90.00;;;;;;5040441;28;20139;-86
2021/06/12 07:02:38;;;;;;;6.90;4.38;;;20.50;90.00;;;;;;5040961;28;20036;-86
2021/06/12 07:05:04;;;;;;;8.23;4.75;;;20.60;90.00;;;;;;5034909;28;20028;-86
2021/06/12 07:07:30;;;;;;;7.60;4.47;;;20.60;89.60;;;;;;5037075;28;20090;-87
2021/06/12 07:09:56;;;;;;;6.65;4.10;;;20.70;89.40;;;;;;5026222;28;20542;-86
2021/06/12 07:12:21;;;;;;;6.20;3.85;;;20.70;89.20;;;;;;5040646;28;20516;-86
2021/06/12 07:14:47;;;;;;;7.43;3.88;;;20.70;89.00;;;;;;5040385;28;20048;-86
2021/06/12 07:17:13;;;;;;;5.25;3.60;;;20.80;88.20;;;;;;5036811;28;20029;-86
2021/06/12 07:19:39;;;;;;;6.32;3.70;;;20.80;87.60;;;;;;5048248;28;20444;-87
2021/06/12 07:22:05;;;;;;;7.95;3.40;;;20.80;87.10;;;;;;5058522;28;20112;-86
2021/06/12 07:24:32;;;;;;;4.53;3.33;;;20.80;86.80;;;;;;5022919;28;20029;-87
2021/06/12 07:26:58;;;;;;;4.80;3.17;;;20.90;86.80;;;;;;5046962;28;20024;-87
2021/06/12 07:29:23;;;;;;;5.32;2.95;;;21.00;86.60;;;;;;5067406;22;20103;-87
2021/06/12 07:32:41;;;;;;;5.75;2.83;;;21.00;86.20;;;;;;5027002;28;20387;-86
2021/06/12 07:35:08;;;;;;;5.82;2.90;;;21.00;85.90;;;;;;5051150;28;20029;-87
2021/06/12 07:37:33;;;;;;;5.15;2.80;;;21.10;85.50;;;;;;5052536;28;20017;-87
2021/06/12 07:39:59;;;;;;;6.80;3.25;;;21.10;84.80;;;;;;5052270;28;20025;-86
2021/06/12 07:42:25;;;;;;;5.30;2.80;;;21.20;84.60;;;;;;5026526;28;20039;-87
2021/06/12 07:44:50;;;;;;;5.05;2.78;;;21.20;84.30;;;;;;5033933;28;20479;-86
2021/06/12 07:47:16;;;;;;;5.70;2.58;;;21.30;84.10;;;;;;5032487;28;20068;-87
2021/06/12 07:49:42;;;;;;;5.22;2.45;;;21.30;84.10;;;;;;5035768;28;20021;-87
2021/06/12 07:52:07;;;;;;;5.82;2.95;;;21.30;84.00;;;;;;5035551;28;20020;-86
2021/06/12 07:54:36;;;;;;;5.00;2.28;;;21.40;84.60;;;;;;5032522;28;20017;-87
2021/06/12 07:57:02;;;;;;;3.70;2.30;;;21.40;83.20;;;;;;5049086;28;20021;-87
2021/06/12 07:59:28;;;;;;;4.88;2.42;;;21.40;82.00;;;;;;5051580;28;20036;-88
2021/06/12 08:01:54;;;;;;;3.60;2.25;;;21.40;81.20;;;;;;5034931;28;20025;-88
2021/06/12 08:04:19;;;;;;;4.07;2.40;;;21.40;81.40;;;;;;5051360;28;20389;-87
2021/06/12 08:06:45;;;;;;;2.90;2.13;;;21.50;81.70;;;;;;5051212;28;20040;-87
2021/06/12 08:09:11;;;;;;;4.00;2.50;;;21.50;81.30;;;;;;5034621;28;20029;-87
2021/06/12 08:11:36;;;;;;;6.43;2.53;;;21.50;80.60;;;;;;5051272;28;20397;-87
2021/06/12 08:14:02;;;;;;;3.20;2.20;;;21.60;80.20;;;;;;5034641;28;20473;-87
2021/06/12 08:16:28;;;;;;;4.10;2.00;;;21.60;79.30;;;;;;5042610;28;20026;-87
2021/06/12 08:18:53;;;;;;;3.80;2.05;;;21.60;78.70;;;;;;5029741;28;20390;-87
2021/06/12 08:21:19;;;;;;;5.25;2.30;;;21.70;78.50;;;;;;5034780;28;20021;-87
2021/06/12 08:23:45;;;;;;;4.05;2.13;;;21.60;77.70;;;;;;5052578;28;20131;-87
2021/06/12 08:26:11;;;;;;;4.47;2.17;;;21.70;77.70;;;;;;5050900;28;20474;-87
2021/06/12 08:28:36;;;;;;;4.40;2.30;;;21.70;77.90;;;;;;5034377;28;20115;-87
2021/06/12 08:31:04;;;;;;;5.68;2.35;;;21.70;77.20;;;;;;5034564;28;20029;-87
2021/06/12 08:33:30;;;;;;;3.30;2.00;;;21.80;76.80;;;;;;5025725;28;20018;-87
2021/06/12 08:35:56;;;;;;;4.13;2.00;;;21.80;76.30;;;;;;5029698;28;20040;-87
2021/06/12 08:38:22;;;;;;;3.63;1.92;;;21.90;75.90;;;;;;5018083;28;20029;-87
2021/06/12 08:40:48;;;;;;;4.80;2.17;;;21.90;75.70;;;;;;5054877;28;20465;-87
2021/06/12 08:43:23;;;;;;;3.60;2.10;;;21.90;75.90;;;;;;5056261;28;20025;-87
2021/06/12 08:45:49;;;;;;;5.22;2.22;;;22.00;75.40;;;;;;5055181;28;20017;-87
2021/06/12 08:48:16;;;;;;;3.95;1.90;;;22.00;74.40;;;;;;5038242;28;20025;-87
2021/06/12 08:50:43;;;;;;;5.25;2.08;;;22.00;73.60;;;;;;5056281;28;20016;-87
2021/06/12 08:53:08;;;;;;;4.70;2.03;;;22.10;73.40;;;;;;5038128;28;20581;-87
2021/06/12 08:55:34;;;;;;;2.83;1.90;;;22.10;73.80;;;;;;5054741;28;20052;-87
2021/06/12 08:58:00;;;;;;;4.75;2.00;;;22.20;74.50;;;;;;5071637;28;20032;-87
2021/06/12 09:00:26;;;;;;;4.88;2.17;;;22.30;74.70;;;;;;5054455;28;20041;-86
2021/06/12 09:03:13;;;;;;;3.83;2.10;;;22.40;73.30;;;;;;5054605;28;20029;-87
2021/06/12 09:05:55;;;;;;;6.10;2.08;;;22.40;73.20;;;;;;5042027;28;20398;-88
2021/06/12 09:08:32;;;;;;;6.32;2.60;;;22.50;73.00;;;;;;5054663;28;20021;-88
2021/06/12 09:10:59;;;;;;;4.43;2.33;;;22.60;73.00;;;;;;5054614;28;20078;-88
2021/06/12 09:13:38;;;;;;;5.72;2.15;;;22.60;72.00;;;;;;5070658;28;20053;-88
2021/06/12 09:16:05;;;;;;;3.30;1.83;;;22.70;71.80;;;;;;5071483;28;20017;-87
2021/06/12 09:18:36;;;;;;;4.90;2.10;;;22.80;70.80;;;;;;5038237;28;20025;-88
2021/06/12 09:21:03;;;;;;;5.82;2.78;;;22.80;69.90;;;;;;5047625;28;20063;-88
2021/06/12 09:23:40;;;;;;;4.10;1.90;;;22.80;69.50;;;;;;5037907;28;20107;-88
2021/06/12 09:26:07;;;;;;;5.05;2.00;;;22.90;69.60;;;;;;5054501;28;20029;-88
2021/06/12 09:28:54;;;;;;;4.90;2.20;;;22.90;69.90;;;;;;5037425;28;20048;-88
2021/06/12 09:31:25;;;;;;;5.28;2.20;;;22.90;69.60;;;;;;5054251;28;20406;-87
2021/06/12 09:33:54;;;;;;;5.43;2.40;;;23.00;69.20;;;;;;5054390;28;20369;-88
2021/06/12 09:36:31;;;;;;;5.78;1.88;;;23.00;67.70;;;;;;5054210;28;20025;-88
2021/06/12 09:39:07;;;;;;;4.60;1.85;;;23.10;68.00;;;;;;5040273;28;20009;-87
2021/06/12 09:41:33;;;;;;;4.35;2.17;;;23.10;68.40;;;;;;5054135;28;20025;-87
2021/06/12 09:43:59;;;;;;;4.95;2.60;;;23.20;68.40;;;;;;5054121;28;20048;-87
2021/06/12 09:46:37;;;;;;;5.25;1.70;;;23.20;68.30;;;;;;5017434;28;20060;-87
2021/06/12 09:49:05;;;;;;;5.10;2.00;;;23.30;68.90;;;;;;5033980;28;20381;-87
2021/06/12 09:51:31;;;;;;;6.50;2.65;;;23.30;69.20;;;;;;5027685;28;20033;-87
2021/06/12 09:53:59;;;;;;;6.65;2.25;;;23.30;67.80;;;;;;5037113;28;20017;-87
2021/06/12 09:56:25;;;;;;;5.13;2.30;;;23.40;67.40;;;;;;5053774;28;20490;-87
2021/06/12 09:58:53;;;;;;;6.40;2.40;;;23.30;66.60;;;;;;5035376;28;20052;-87
2021/06/12 10:01:21;;;;;;;4.88;2.28;;;23.30;66.50;;;;;;5053789;28;20025;-87
2021/06/12 10:03:47;;;;;;;4.57;2.10;;;23.40;66.80;;;;;;5053577;28;20033;-87
2021/06/12 10:06:20;;;;;;;4.03;1.98;;;23.40;67.60;;;;;;5036993;28;20052;-87
2021/06/12 10:08:51;;;;;;;6.30;2.30;;;23.40;67.10;;;;;;5053312;28;20116;-87
2021/06/12 10:11:21;;;;;;;4.20;2.00;;;23.40;67.10;;;;;;5039805;28;20013;-87
2021/06/12 10:13:48;;;;;;;3.95;1.90;;;23.50;67.20;;;;;;5053351;28;20136;-88
2021/06/12 10:16:15;;;;;;;4.63;2.03;;;23.50;67.40;;;;;;5053087;28;20017;-87
2021/06/12 10:18:42;;;;;;;5.75;2.08;;;23.50;67.00;;;;;;5053285;28;20029;-87
2021/06/12 10:21:15;;;;;;;4.05;2.10;;;23.60;67.20;;;;;;5053153;28;20028;-87
2021/06/12 10:23:42;;;;;;;6.57;2.45;;;23.60;67.30;;;;;;5053363;28;20096;-87
2021/06/12 10:26:10;;;;;;;4.70;2.10;;;23.60;66.10;;;;;;5036751;28;20029;-87
2021/06/12 10:28:36;;;;;;;5.38;2.30;;;23.60;66.10;;;;;;5052850;28;20053;-87
2021/06/12 10:31:09;;;;;;;4.00;2.10;;;23.60;66.80;;;;;;5037844;28;20025;-87
2021/06/12 10:33:39;;;;;;;5.05;2.30;;;23.60;67.50;;;;;;5041288;28;20112;-87
2021/06/12 10:36:33;;;;;;;5.03;2.28;;;23.70;66.90;;;;;;5053841;28;20029;-87
2021/06/12 10:39:00;;;;;;;8.23;2.65;;;23.70;65.30;;;;;;5053038;28;20021;-87
2021/06/12 10:41:41;;;;;;;4.65;2.17;;;23.70;65.80;;;;;;5069579;28;20386;-88
2021/06/12 10:44:07;;;;;;;5.50;2.50;;;23.80;66.20;;;;;;5056980;28;20025;-87
2021/06/12 10:46:35;;;;;;;6.10;2.30;;;23.80;63.20;;;;;;5053582;28;20108;-87
2021/06/12 10:49:03;;;;;;;5.10;2.28;;;23.90;63.20;;;;;;5020224;28;20037;-87
2021/06/12 10:51:29;;;;;;;6.18;2.17;;;23.90;62.80;;;;;;5046893;28;20021;-87
2021/06/12 10:54:32;;;;;;;4.38;2.30;;;24.00;62.20;;;;;;5049501;28;20128;-88
2021/06/12 10:57:00;;;;;;;5.82;2.63;;;24.00;62.60;;;;;;5043850;28;20025;-87
2021/06/12 10:59:46;;;;;;;3.58;1.52;;;24.00;62.80;;;;;;5052632;28;20079;-88
2021/06/12 11:02:26;;;;;;;5.53;2.10;;;24.10;63.00;;;;;;5053832;28;20474;-88
2021/06/12 11:05:09;;;;;;;5.15;1.77;;;24.10;63.30;;;;;;5036590;28;20032;-87
2021/06/12 11:07:37;;;;;;;3.83;1.90;;;24.20;62.00;;;;;;5052352;28;20048;-87
2021/06/12 11:10:08;;;;;;;5.25;2.10;;;24.20;62.20;;;;;;5052475;28;20017;-88
2021/06/12 11:12:35;;;;;;;4.45;2.15;;;24.30;62.20;;;;;;5041571;28;20385;-87
2021/06/12 11:15:14;;;;;;;5.03;2.05;;;24.40;62.20;;;;;;5034463;28;20466;-87
2021/06/12 11:17:44;;;;;;;5.40;2.17;;;24.40;60.80;;;;;;5052508;28;20021;-87
2021/06/12 11:20:10;;;;;;;4.63;1.93;;;24.50;60.50;;;;;;5052129;28;20524;-87
2021/06/12 11:22:58;;;;;;;5.90;2.25;;;24.40;60.40;;;;;;5052079;28;20275;-87
2021/06/12 11:25:24;;;;;;;6.50;2.17;;;24.50;60.10;;;;;;5041507;28;20064;-88
2021/06/12 11:27:53;;;;;;;7.43;2.42;;;24.50;60.10;;;;;;5052244;28;20025;-87
2021/06/12 11:30:19;;;;;;;5.88;2.20;;;24.50;60.60;;;;;;5053308;28;20053;-88
2021/06/12 11:32:48;;;;;;;5.00;2.38;;;24.50;59.80;;;;;;5053701;28;20014;-88
2021/06/12 11:35:52;;;;;;;4.50;2.03;;;24.40;59.80;;;;;;5038139;28;20043;-87
2021/06/12 11:38:28;;;;;;;3.33;1.70;;;24.40;59.90;;;;;;5068373;28;20031;-87
2021/06/12 11:41:22;;;;;;;5.28;2.65;;;24.40;61.20;;;;;;5052243;28;20031;-88
2021/06/12 11:43:52;;;;;;;4.43;2.17;;;24.40;61.00;;;;;;5054640;28;20036;-87
2021/06/12 11:46:36;;;;;;;4.78;2.10;;;24.50;61.20;;;;;;5019967;28;20029;-87
2021/06/12 11:49:13;;;;;;;5.05;2.15;;;24.50;60.90;;;;;;5051775;28;20024;-88
2021/06/12 11:51:42;;;;;;;4.90;1.80;;;24.50;61.10;;;;;;5052077;28;20031;-88
2021/06/12 11:55:00;;;;;;;4.32;1.60;;;24.50;60.80;;;;;;5052693;28;20481;-87
2021/06/12 11:57:39;;;;;;;6.90;2.80;;;24.50;60.80;;;;;;5051453;28;20029;-87
2021/06/12 12:00:24;;;;;;;5.68;2.65;;;24.60;60.00;;;;;;5035030;28;20027;-88
2021/06/12 12:03:10;;;;;;;5.43;1.98;;;24.70;59.80;;;;;;5051327;28;20448;-87
2021/06/12 12:05:39;;;;;;;4.22;1.88;;;24.70;58.70;;;;;;5049578;28;20043;-87
2021/06/12 12:08:22;;;;;;;4.90;1.90;;;24.80;58.10;;;;;;5040301;28;20028;-87
2021/06/12 12:10:53;;;;;;;5.10;2.40;;;24.80;57.70;;;;;;5051739;28;20116;-87
2021/06/12 12:13:39;;;;;;;4.18;1.70;;;24.80;57.70;;;;;;5034479;28;20017;-86
2021/06/12 12:16:21;;;;;;;4.60;2.03;;;24.80;59.00;;;;;;5050898;28;20025;-86
2021/06/12 12:18:50;;;;;;;5.65;2.30;;;24.80;58.80;;;;;;5052810;28;20494;-87
2021/06/12 12:21:28;;;;;;;5.97;2.10;;;24.80;59.10;;;;;;5050879;28;20486;-86
2021/06/12 12:24:12;;;;;;;4.43;2.08;;;24.80;59.00;;;;;;5051119;28;20036;-87
2021/06/12 12:26:39;;;;;;;6.47;1.95;;;24.90;60.40;;;;;;5037970;28;20013;-86
2021/06/12 12:29:13;;;;;;;5.03;1.92;;;24.90;59.10;;;;;;5051031;28;20041;-86
2021/06/12 12:31:47;;;;;;;6.97;2.05;;;25.00;58.70;;;;;;5043027;28;20032;-86
2021/06/12 12:34:15;;;;;;;4.88;2.00;;;25.00;59.80;;;;;;5052731;28;20029;-86
2021/06/12 12:36:50;;;;;;;6.13;2.25;;;25.00;59.30;;;;;;5034349;28;20034;-87
2021/06/12 12:39:16;;;;;;;6.57;2.22;;;25.10;59.20;;;;;;5051299;28;20093;-87
2021/06/12 12:41:55;;;;;;;5.78;2.13;;;25.10;59.10;;;;;;5052164;28;20033;-86
2021/06/12 12:44:22;;;;;;;4.53;2.17;;;25.20;58.00;;;;;;5051123;28;20017;-86
2021/06/12 12:46:49;;;;;;;6.57;1.80;;;25.20;58.40;;;;;;5034641;28;20112;-87
2021/06/12 12:49:26;;;;;;;7.90;2.28;;;25.30;57.70;;;;;;5034670;28;20028;-87
2021/06/12 12:52:00;;;;;;;6.68;2.17;;;25.30;56.40;;;;;;5051214;28;20021;-87
2021/06/12 12:54:32;;;;;;;4.60;1.83;;;25.40;57.00;;;;;;5051403;28;20492;-87
2021/06/12 12:57:09;;;;;;;3.42;1.70;;;25.40;57.20;;;;;;5051478;28;20021;-87
2021/06/12 12:59:42;;;;;;;4.97;1.67;;;25.50;56.80;;;;;;5052522;28;20029;-87
2021/06/12 13:02:09;;;;;;;4.80;1.90;;;25.50;56.70;;;;;;5051018;28;20251;-87